Aérodrome :
LOGIN :

S'inscrire | Disclaimer

   EN    FR    IT 

 










Légende :    VFR   VFR Marginal   IFR   IFR Intensif   IFR Très Intensif
Visi : 
Plafond : 
>= 8 km
>= 3000ft
5 à 8 km
1000 à 3000 ft
1500m à 5 km
500 à 1000 ft
800 à 1500m
200 à 500 ft
< 800m
< 200 ft
Symboles :   Orages  Brouillard  Fortes neiges  Fortes précipitations  Vent > 20 kt
SIGMETs :   Divers  Orages  Givrage  Turbulence  Onde Orograph.  Cendres Volcan.







- Altitude de l'aérodrome : 408 ft
- Code IATA : SOB


LHSM - Sarmellek Balaton

DERNIER METAR :
  • 221815Z 24003KT CAVOK 13/11 Q1023

METARs EXPIRÉS :
  • 221745Z 25002KT CAVOK 13/11 Q1023 RESHRA NOSIG
  • 221715Z 24004KT 9999 FEW010 BKN076 OVC083 13/11 Q1023 RESHRA NOSIG
  • 221645Z 26004KT 9999 -SHRA FEW010 BKN070 OVC083 13/11 Q1024 NOSIG
  • 221615Z 25004KT 9999 FEW010 SCT076 OVC083 13/11 Q1024 RESHRA NOSIG
  • 221545Z 24003KT 9999 -SHRA FEW010 BKN076 OVC083 13/11 Q1023 NOSIG

TAF TAF LHSM
Valide du 22 à 15h jusqu'au 23 à 00h UTC


221415Z 2215/2224 VRB03KT CAVOK
TEMPO 2215/2217 -RA SCT030 BKN060
Pas de NOTAMs connus pour ce terrain.



MET'MAP, la Météo Aéronautique d'un coup d'oeil ! - Copyright ORBIFLY Décembre 2007 - Disclaimer

ORBIFLY MET'MAP TEAM :

Programmation & Développement : Alexandra Zaïnal
Conception & Développement : Baudouin d'Aumeries
Co-Programmation & Développement : Marc-Olivier Méhu
Soutien technique & logistique : Manuel Goepfert

Contact : metmap@orbifly.com




SOURCES & CREDITS :

   NOAA